Time;durP1;ratioP1;P1;durP2;ratioP2;P2;SDS_P1;SDS_P2;PMS_P1;PMS_P2;Temp;Humidity;BMP_temperature;BMP_pressure;BME280_temperature;BME280_humidity;BME280_pressure;Samples;Min_cycle;Max_cycle;Signal;HPM_P1;HPM_P2
2024/01/27 00:01:22;;;;;;;0.00;0.00;;;;;;;8.39;68.74;100341.78;4352531;32;33750;-84
2024/01/27 00:03:50;;;;;;;1.17;0.35;;;;;;;8.73;67.05;100330.34;4352052;32;34464;-84
2024/01/27 00:06:17;;;;;;;1.25;0.85;;;;;;;8.78;66.25;100333.69;4373853;32;34623;-84
2024/01/27 00:08:45;;;;;;;0.52;0.52;;;;;;;8.70;66.61;100304.09;4358291;32;33233;-84
2024/01/27 00:11:13;;;;;;;0.03;0.03;;;;;;;8.59;66.51;100317.59;4355011;32;33965;-84
2024/01/27 00:13:41;;;;;;;0.20;0.20;;;;;;;8.60;66.02;100314.03;4374765;32;32986;-84
2024/01/27 00:16:09;;;;;;;1.50;0.73;;;;;;;8.89;64.73;100320.25;4371129;32;34036;-84
2024/01/27 00:18:39;;;;;;;0.00;0.00;;;;;;;8.60;66.02;100345.63;4364937;32;33610;-84
2024/01/27 00:21:11;;;;;;;0.00;0.00;;;;;;;8.74;64.70;100337.34;4350108;32;32824;-85
2024/01/27 00:23:40;;;;;;;3.42;0.43;;;;;;;8.20;65.78;100357.12;4355194;32;32344;-84
2024/01/27 00:26:08;;;;;;;0.00;0.00;;;;;;;8.35;64.11;100360.28;4374004;32;34231;-84
2024/01/27 00:28:37;;;;;;;0.25;0.25;;;;;;;8.33;63.33;100364.72;4360572;32;31930;-85
2024/01/27 00:31:04;;;;;;;0.00;0.00;;;;;;;8.53;61.01;100358.97;4356012;32;32649;-85
2024/01/27 00:33:32;;;;;;;0.00;0.00;;;;;;;8.27;62.75;100368.38;4373681;32;35145;-84
2024/01/27 00:36:00;;;;;;;0.00;0.00;;;;;;;8.65;61.22;100377.94;4348192;32;34172;-84
2024/01/27 00:38:28;;;;;;;0.00;0.00;;;;;;;8.43;59.99;100353.94;4374671;32;33313;-85
2024/01/27 00:40:55;;;;;;;0.00;0.00;;;;;;;8.69;59.19;100384.00;4368579;32;34223;-84
2024/01/27 00:43:23;;;;;;;0.00;0.00;;;;;;;8.45;60.64;100389.00;4374112;32;33089;-85
2024/01/27 00:45:50;;;;;;;0.30;0.30;;;;;;;8.70;59.08;100386.59;4360728;32;33660;-84
2024/01/27 00:48:19;;;;;;;0.00;0.00;;;;;;;8.56;60.06;100396.63;4357148;32;33241;-85
2024/01/27 00:50:47;;;;;;;0.43;0.43;;;;;;;9.00;58.39;100406.87;4348640;32;32267;-85
2024/01/27 00:53:15;;;;;;;0.00;0.00;;;;;;;8.75;59.58;100427.72;4356840;32;32565;-85
2024/01/27 00:55:42;;;;;;;0.20;0.20;;;;;;;8.84;59.51;100438.03;4360605;32;31854;-86
2024/01/27 00:58:10;;;;;;;0.00;0.00;;;;;;;8.75;59.09;100443.53;4346914;32;32090;-85
2024/01/27 01:00:38;;;;;;;0.00;0.00;;;;;;;8.70;60.15;100446.28;4371167;32;32304;-86
2024/01/27 01:03:13;;;;;;;0.00;0.00;;;;;;;8.51;60.57;100455.53;4359453;32;34482;-84
2024/01/27 01:05:41;;;;;;;0.00;0.00;;;;;;;8.55;59.90;100462.47;4343753;32;33668;-84
2024/01/27 01:08:08;;;;;;;0.40;0.40;;;;;;;8.42;60.23;100461.91;4357884;32;33219;-85
2024/01/27 01:10:36;;;;;;;0.00;0.00;;;;;;;8.48;60.09;100460.87;4360434;32;32535;-85
2024/01/27 01:13:04;;;;;;;0.00;0.00;;;;;;;8.77;59.13;100463.63;4358794;32;34031;-85
2024/01/27 01:15:31;;;;;;;0.00;0.00;;;;;;;8.30;61.34;100477.94;4373838;32;35056;-84
2024/01/27 01:17:59;;;;;;;2.30;0.60;;;;;;;8.45;60.57;100462.69;4355999;32;34224;-85
2024/01/27 01:20:27;;;;;;;0.32;0.28;;;;;;;8.48;60.63;100471.41;4372832;32;33459;-85
2024/01/27 01:22:55;;;;;;;0.00;0.00;;;;;;;8.33;60.85;100472.59;4361289;32;33268;-85
2024/01/27 01:25:22;;;;;;;0.20;0.20;;;;;;;8.70;59.41;100477.87;4353834;32;33252;-85
2024/01/27 01:27:52;;;;;;;0.62;0.62;;;;;;;8.62;59.47;100485.94;4360917;32;34027;-85
2024/01/27 01:30:20;;;;;;;0.00;0.00;;;;;;;8.54;60.11;100492.31;4354976;32;33872;-85
2024/01/27 01:32:47;;;;;;;0.10;0.10;;;;;;;9.03;58.56;100475.28;4359912;32;33905;-86
2024/01/27 01:35:15;;;;;;;8.30;0.73;;;;;;;8.60;59.59;100486.91;4341498;32;32865;-85
2024/01/27 01:37:43;;;;;;;0.00;0.00;;;;;;;8.56;59.75;100493.16;4361784;32;32667;-85
2024/01/27 01:40:12;;;;;;;0.00;0.00;;;;;;;8.81;58.47;100502.16;4344989;32;32709;-86
2024/01/27 01:42:40;;;;;;;0.20;0.20;;;;;;;8.20;60.92;100527.25;4353764;32;33691;-86
2024/01/27 01:45:11;;;;;;;0.00;0.00;;;;;;;8.20;60.58;100503.59;4355011;32;33260;-86
2024/01/27 01:47:38;;;;;;;0.00;0.00;;;;;;;8.67;58.90;100510.41;4360862;32;32764;-85
2024/01/27 01:50:07;;;;;;;0.10;0.10;;;;;;;8.47;58.40;100517.91;4370779;32;33018;-86
2024/01/27 01:52:36;;;;;;;0.00;0.00;;;;;;;8.53;58.12;100522.16;4371106;32;34377;-86
2024/01/27 01:55:05;;;;;;;0.00;0.00;;;;;;;8.63;57.08;100535.06;4361639;32;34153;-85
2024/01/27 01:57:33;;;;;;;0.20;0.20;;;;;;;8.28;57.83;100527.97;4355822;32;32885;-85
2024/01/27 02:00:01;;;;;;;0.00;0.00;;;;;;;8.39;57.57;100557.56;4374973;32;34263;-85
2024/01/27 02:02:38;;;;;;;0.10;0.10;;;;;;;8.85;55.70;100545.94;4362429;32;34564;-85
2024/01/27 02:05:08;;;;;;;0.30;0.30;;;;;;;8.77;55.41;100553.16;4364921;32;32505;-84
2024/01/27 02:07:36;;;;;;;0.00;0.00;;;;;;;8.51;55.96;100555.56;4346364;32;34244;-84
2024/01/27 02:10:06;;;;;;;0.10;0.10;;;;;;;7.97;57.36;100559.31;4358594;32;33273;-84
2024/01/27 02:12:34;;;;;;;0.10;0.10;;;;;;;8.43;55.10;100563.63;4351388;32;33900;-85
2024/01/27 02:15:02;;;;;;;0.00;0.00;;;;;;;8.27;55.59;100568.34;4359964;32;33799;-84
2024/01/27 02:17:30;;;;;;;0.00;0.00;;;;;;;8.04;56.54;100565.34;4373464;32;33388;-85
2024/01/27 02:20:00;;;;;;;0.00;0.00;;;;;;;8.42;54.46;100562.75;4371730;32;33787;-85
2024/01/27 02:22:28;;;;;;;0.00;0.00;;;;;;;8.54;54.54;100560.75;4362254;32;32287;-84
2024/01/27 02:24:55;;;;;;;0.00;0.00;;;;;;;8.12;55.19;100548.50;4357873;32;33858;-84
2024/01/27 02:27:23;;;;;;;1.00;0.15;;;;;;;8.07;54.94;100544.22;4360402;32;33480;-85
2024/01/27 02:29:51;;;;;;;0.00;0.00;;;;;;;8.14;54.84;100548.44;4355646;32;33932;-85
2024/01/27 02:32:18;;;;;;;0.00;0.00;;;;;;;7.63;56.19;100538.13;4345536;32;33375;-84
2024/01/27 02:34:46;;;;;;;0.00;0.00;;;;;;;8.22;54.15;100528.13;4361314;32;32960;-85
2024/01/27 02:37:14;;;;;;;0.00;0.00;;;;;;;7.95;54.76;100543.59;4364244;32;32557;-85
2024/01/27 02:39:42;;;;;;;0.00;0.00;;;;;;;7.84;54.91;100534.19;4349831;32;33255;-85
2024/01/27 02:42:10;;;;;;;0.43;0.43;;;;;;;7.91;54.25;100538.41;4374349;32;33843;-85
2024/01/27 02:44:37;;;;;;;0.08;0.08;;;;;;;7.92;54.64;100534.88;4359970;32;34698;-85
2024/01/27 02:47:05;;;;;;;0.22;0.22;;;;;;;7.54;56.11;100561.94;4359088;32;32354;-85
2024/01/27 02:49:34;;;;;;;0.00;0.00;;;;;;;7.76;54.88;100560.62;4357994;32;32350;-84
2024/01/27 02:52:02;;;;;;;0.10;0.10;;;;;;;7.80;54.64;100582.47;4364473;32;34110;-85
2024/01/27 02:54:30;;;;;;;0.00;0.00;;;;;;;7.72;54.68;100580.00;4351587;32;33744;-84
2024/01/27 02:56:58;;;;;;;0.00;0.00;;;;;;;7.86;54.46;100598.12;4356492;32;33312;-86
2024/01/27 02:59:26;;;;;;;0.00;0.00;;;;;;;7.61;54.95;100603.88;4358336;32;34578;-85
2024/01/27 03:01:54;;;;;;;0.00;0.00;;;;;;;7.41;56.17;100612.12;4350145;32;34250;-86
2024/01/27 03:04:22;;;;;;;0.00;0.00;;;;;;;7.78;55.18;100610.53;4363617;32;33711;-85
2024/01/27 03:06:49;;;;;;;0.00;0.00;;;;;;;7.95;54.86;100619.84;4349131;32;33040;-86
2024/01/27 03:09:18;;;;;;;0.57;0.50;;;;;;;8.15;54.10;100615.94;4370427;32;36100;-86
2024/01/27 03:11:46;;;;;;;0.10;0.10;;;;;;;7.84;55.13;100620.97;4359387;32;33311;-87
2024/01/27 03:14:14;;;;;;;0.00;0.00;;;;;;;7.49;56.29;100632.12;4362881;32;32848;-87
2024/01/27 03:16:43;;;;;;;0.10;0.10;;;;;;;7.91;55.49;100628.69;4366682;32;31961;-86
2024/01/27 03:19:18;;;;;;;0.00;0.00;;;;;;;8.03;54.88;100632.00;4360536;32;33938;-86
2024/01/27 03:21:46;;;;;;;0.30;0.30;;;;;;;7.89;55.12;100646.28;4363211;32;33327;-88
2024/01/27 03:24:14;;;;;;;0.00;0.00;;;;;;;8.12;54.44;100655.50;4360603;32;32725;-87
2024/01/27 03:26:42;;;;;;;0.00;0.00;;;;;;;8.02;54.36;100672.31;4362975;32;33342;-86
2024/01/27 03:29:10;;;;;;;0.00;0.00;;;;;;;7.78;55.42;100674.50;4359033;32;34343;-87
2024/01/27 03:31:38;;;;;;;0.00;0.00;;;;;;;7.66;55.69;100683.50;4348890;32;32483;-86
2024/01/27 03:34:05;;;;;;;0.00;0.00;;;;;;;7.42;56.48;100682.16;4358344;32;34662;-87
2024/01/27 03:36:33;;;;;;;1.12;0.62;;;;;;;7.36;56.73;100695.41;4360393;32;33524;-87
2024/01/27 03:39:01;;;;;;;0.00;0.00;;;;;;;7.77;55.30;100693.81;4361554;32;32453;-87
2024/01/27 03:41:28;;;;;;;0.00;0.00;;;;;;;7.79;55.46;100697.31;4347698;32;32359;-87
2024/01/27 03:43:56;;;;;;;0.00;0.00;;;;;;;7.85;55.33;100696.31;4349547;32;32489;-86
2024/01/27 03:46:24;;;;;;;0.00;0.00;;;;;;;7.92;55.15;100704.03;4363727;32;34066;-85
2024/01/27 03:48:52;;;;;;;0.00;0.00;;;;;;;7.69;55.84;100706.22;4354254;32;32307;-85
2024/01/27 03:51:20;;;;;;;0.00;0.00;;;;;;;7.95;54.89;100709.25;4362171;32;33945;-85
2024/01/27 03:53:48;;;;;;;0.00;0.00;;;;;;;7.83;55.41;100708.59;4350429;32;33506;-86
2024/01/27 03:56:15;;;;;;;0.00;0.00;;;;;;;7.84;55.57;100713.84;4358613;32;32481;-85
2024/01/27 03:58:43;;;;;;;0.00;0.00;;;;;;;7.87;55.69;100713.78;4362585;32;32811;-85
2024/01/27 04:01:11;;;;;;;0.25;0.25;;;;;;;7.92;55.19;100711.94;4362066;32;32958;-85
2024/01/27 04:03:39;;;;;;;7.32;1.10;;;;;;;7.69;56.11;100722.88;4359704;32;33333;-85
2024/01/27 04:06:06;;;;;;;0.00;0.00;;;;;;;7.55;56.85;100729.25;4363049;32;33336;-85
2024/01/27 04:08:34;;;;;;;0.00;0.00;;;;;;;7.62;56.96;100731.75;4361179;32;33508;-85
2024/01/27 04:11:02;;;;;;;0.00;0.00;;;;;;;7.42;57.51;100732.09;4375399;32;32463;-84
2024/01/27 04:13:30;;;;;;;0.00;0.00;;;;;;;7.60;57.22;100737.94;4364781;32;34534;-85
2024/01/27 04:16:01;;;;;;;0.15;0.15;;;;;;;7.70;56.83;100740.38;4350327;32;33037;-86
2024/01/27 04:18:29;;;;;;;0.00;0.00;;;;;;;7.49;57.52;100737.22;4369265;32;34319;-86
2024/01/27 04:20:57;;;;;;;0.05;0.05;;;;;;;6.86;59.51;100754.78;4361110;32;33116;-85
2024/01/27 04:23:24;;;;;;;0.00;0.00;;;;;;;7.18;58.38;100740.34;4354472;32;34007;-84
2024/01/27 04:25:52;;;;;;;0.00;0.00;;;;;;;7.49;57.50;100740.72;4336779;32;33929;-85
2024/01/27 04:28:20;;;;;;;0.00;0.00;;;;;;;7.31;57.48;100752.41;4363303;32;34061;-84
2024/01/27 04:30:47;;;;;;;0.00;0.00;;;;;;;7.50;55.93;100746.84;4366947;32;31779;-85
2024/01/27 04:33:15;;;;;;;0.00;0.00;;;;;;;6.89;58.05;100767.88;4371943;32;34755;-85
2024/01/27 04:35:43;;;;;;;0.47;0.47;;;;;;;7.02;56.71;100770.31;4362586;32;32033;-84
2024/01/27 04:38:10;;;;;;;0.00;0.00;;;;;;;7.28;55.77;100778.72;4349288;32;34504;-87
2024/01/27 04:40:38;;;;;;;0.00;0.00;;;;;;;6.76;56.54;100794.31;4361187;32;33311;-87
2024/01/27 04:43:06;;;;;;;0.00;0.00;;;;;;;7.16;55.76;100786.75;4362026;32;32439;-85
2024/01/27 04:45:34;;;;;;;0.00;0.00;;;;;;;6.83;56.87;100778.44;4352971;32;33759;-85
2024/01/27 04:48:02;;;;;;;0.00;0.00;;;;;;;7.07;55.84;100797.38;4354277;32;33601;-84
2024/01/27 04:50:30;;;;;;;0.60;0.60;;;;;;;7.00;56.00;100785.25;4355777;32;34820;-84
2024/01/27 04:52:57;;;;;;;0.17;0.17;;;;;;;7.21;55.21;100782.31;4360890;32;33251;-83
2024/01/27 04:55:25;;;;;;;0.20;0.10;;;;;;;7.16;55.39;100802.53;4369263;32;32728;-84
2024/01/27 04:57:53;;;;;;;0.00;0.00;;;;;;;7.00;56.11;100799.25;4356144;32;34307;-84
2024/01/27 05:00:21;;;;;;;0.00;0.00;;;;;;;6.62;57.34;100818.09;4374708;32;35262;-84
2024/01/27 05:02:48;;;;;;;0.00;0.00;;;;;;;6.73;56.24;100825.81;4361553;32;32479;-84
2024/01/27 05:05:16;;;;;;;0.03;0.03;;;;;;;6.89;55.93;100817.75;4373954;32;33340;-84
2024/01/27 05:07:44;;;;;;;0.00;0.00;;;;;;;7.02;55.82;100815.84;4357566;32;32182;-84
2024/01/27 05:10:12;;;;;;;0.00;0.00;;;;;;;7.29;54.59;100822.47;4353679;32;33688;-84
2024/01/27 05:12:40;;;;;;;0.00;0.00;;;;;;;7.31;54.34;100823.34;4372650;32;34811;-84
2024/01/27 05:15:08;;;;;;;0.00;0.00;;;;;;;7.35;53.85;100817.13;4347318;32;32136;-84
2024/01/27 05:17:36;;;;;;;0.00;0.00;;;;;;;6.93;54.44;100819.47;4355345;32;34177;-84
2024/01/27 05:20:04;;;;;;;0.17;0.17;;;;;;;7.15;54.30;100814.78;4362684;32;33720;-83
2024/01/27 05:22:32;;;;;;;0.00;0.00;;;;;;;7.33;53.03;100818.94;4354947;32;34236;-85
2024/01/27 05:25:00;;;;;;;0.00;0.00;;;;;;;7.03;53.49;100835.12;4351706;32;33756;-85
2024/01/27 05:27:27;;;;;;;0.00;0.00;;;;;;;7.26;52.57;100822.50;4351231;32;33380;-85
2024/01/27 05:29:55;;;;;;;0.00;0.00;;;;;;;7.26;51.90;100822.50;4363593;32;33705;-84
2024/01/27 05:32:29;;;;;;;0.00;0.00;;;;;;;7.01;53.10;100837.72;4366023;32;33625;-85
2024/01/27 05:34:57;;;;;;;0.00;0.00;;;;;;;6.72;53.45;100840.72;4371534;32;32067;-85
2024/01/27 05:37:24;;;;;;;0.62;0.62;;;;;;;7.01;52.10;100829.00;4368251;32;34579;-84
2024/01/27 05:39:52;;;;;;;0.00;0.00;;;;;;;7.03;51.62;100845.62;4358986;32;34529;-83
2024/01/27 05:42:20;;;;;;;0.00;0.00;;;;;;;7.13;51.02;100853.34;4351331;32;33933;-83
2024/01/27 05:44:47;;;;;;;0.00;0.00;;;;;;;6.88;51.95;100868.53;4351169;32;31873;-83
2024/01/27 05:47:15;;;;;;;0.35;0.35;;;;;;;7.04;50.42;100857.84;4373880;32;34333;-83
2024/01/27 05:49:43;;;;;;;0.00;0.00;;;;;;;6.96;50.35;100880.69;4359203;32;33590;-83
2024/01/27 05:52:11;;;;;;;0.00;0.00;;;;;;;6.95;50.39;100889.47;4362555;32;32273;-83
2024/01/27 05:54:52;;;;;;;0.00;0.00;;;;;;;7.10;50.04;100890.16;4349808;32;31832;-83
2024/01/27 05:57:21;;;;;;;0.00;0.00;;;;;;;7.10;50.10;100898.03;4367904;32;33956;-83
2024/01/27 05:59:48;;;;;;;0.00;0.00;;;;;;;7.09;50.14;100908.56;4368685;32;34721;-83
2024/01/27 06:02:17;;;;;;;0.30;0.30;;;;;;;6.98;50.52;100926.16;4374410;32;34128;-83
2024/01/27 06:04:46;;;;;;;0.00;0.00;;;;;;;6.93;50.56;100929.75;4376618;32;33236;-84
2024/01/27 06:07:14;;;;;;;0.00;0.00;;;;;;;6.71;51.44;100933.47;4358815;32;33557;-83
2024/01/27 06:09:42;;;;;;;0.00;0.00;;;;;;;6.87;50.91;100928.91;4359747;32;34638;-83
2024/01/27 06:12:10;;;;;;;0.00;0.00;;;;;;;6.80;51.34;100933.38;4349984;32;33972;-83
2024/01/27 06:14:38;;;;;;;0.17;0.17;;;;;;;6.57;52.42;100933.59;4356703;32;34178;-83
2024/01/27 06:17:05;;;;;;;0.00;0.00;;;;;;;6.67;52.36;100937.00;4374456;32;33909;-83
2024/01/27 06:19:33;;;;;;;0.00;0.00;;;;;;;6.77;52.42;100945.66;4355729;32;33901;-83
2024/01/27 06:22:01;;;;;;;0.00;0.00;;;;;;;7.08;51.65;100938.34;4345979;32;32968;-86
2024/01/27 06:24:32;;;;;;;0.25;0.25;;;;;;;6.71;52.92;100932.59;4350304;32;32459;-84
2024/01/27 06:27:00;;;;;;;0.30;0.30;;;;;;;6.89;52.80;100948.19;4359372;32;33827;-84
2024/01/27 06:29:29;;;;;;;0.10;0.10;;;;;;;6.95;52.88;100937.59;4363627;32;34337;-84
2024/01/27 06:31:56;;;;;;;0.00;0.00;;;;;;;6.85;53.48;100956.97;4361834;32;33197;-84
2024/01/27 06:34:24;;;;;;;0.05;0.05;;;;;;;6.76;54.02;100962.31;4353691;32;32242;-84
2024/01/27 06:36:52;;;;;;;0.00;0.00;;;;;;;7.06;53.27;100961.97;4355147;32;33642;-84
2024/01/27 06:39:21;;;;;;;6.87;0.60;;;;;;;6.49;55.18;100963.41;4350480;32;33695;-84
2024/01/27 06:41:49;;;;;;;0.00;0.00;;;;;;;6.88;53.75;100954.28;4355206;32;32429;-84
2024/01/27 06:44:17;;;;;;;0.10;0.10;;;;;;;6.70;54.08;100960.59;4362415;32;32351;-84
2024/01/27 06:46:46;;;;;;;0.00;0.00;;;;;;;6.77;53.77;100964.91;4364009;32;34220;-84
2024/01/27 06:49:14;;;;;;;0.00;0.00;;;;;;;6.62;54.57;100970.28;4362577;32;33395;-84
2024/01/27 06:51:41;;;;;;;0.00;0.00;;;;;;;6.76;53.77;100967.56;4357823;32;32959;-84
2024/01/27 06:54:09;;;;;;;0.00;0.00;;;;;;;6.56;54.62;100965.13;4354589;32;33603;-84
2024/01/27 06:56:38;;;;;;;0.00;0.00;;;;;;;6.99;53.44;100969.97;4338409;32;33225;-84
2024/01/27 06:59:05;;;;;;;0.00;0.00;;;;;;;6.81;54.03;100961.38;4358990;32;33606;-84
2024/01/27 07:01:33;;;;;;;0.00;0.00;;;;;;;6.73;54.17;100952.69;4361733;32;33298;-84
2024/01/27 07:04:01;;;;;;;0.00;0.00;;;;;;;6.63;54.54;100957.16;4361439;32;33782;-84
2024/01/27 07:06:29;;;;;;;0.00;0.00;;;;;;;6.28;56.20;100954.84;4370492;32;33871;-85
2024/01/27 07:08:57;;;;;;;0.10;0.10;;;;;;;6.04;56.79;100957.62;4362274;32;33693;-84
2024/01/27 07:11:25;;;;;;;0.00;0.00;;;;;;;6.53;55.29;100949.37;4362793;32;33476;-84
2024/01/27 07:13:52;;;;;;;0.75;0.45;;;;;;;6.50;55.61;100959.88;4357213;32;33190;-84
2024/01/27 07:16:21;;;;;;;0.47;0.35;;;;;;;6.77;54.91;100954.41;4367349;32;33590;-84
2024/01/27 07:18:51;;;;;;;0.00;0.00;;;;;;;6.38;55.57;100961.75;4361994;32;33629;-84
2024/01/27 07:21:19;;;;;;;0.00;0.00;;;;;;;6.86;54.91;100970.06;4349291;32;33759;-85
2024/01/27 07:23:46;;;;;;;0.00;0.00;;;;;;;6.95;54.67;100979.59;4349087;32;32924;-85
2024/01/27 07:26:15;;;;;;;0.00;0.00;;;;;;;7.09;54.12;100982.09;4365339;32;32263;-85
2024/01/27 07:28:43;;;;;;;0.00;0.00;;;;;;;7.21;53.63;100987.19;4372644;32;34132;-85
2024/01/27 07:31:11;;;;;;;0.00;0.00;;;;;;;6.82;55.19;100983.22;4356068;32;32361;-85
2024/01/27 07:33:39;;;;;;;0.43;0.37;;;;;;;6.85;55.14;100997.22;4362284;32;32965;-85
2024/01/27 07:36:07;;;;;;;0.00;0.00;;;;;;;7.42;53.42;100989.59;4373195;32;34281;-85
2024/01/27 07:38:35;;;;;;;0.00;0.00;;;;;;;7.18;53.62;100982.00;4351395;32;33579;-85
2024/01/27 07:41:03;;;;;;;1.65;1.25;;;;;;;7.37;52.97;101001.94;4359239;32;33272;-85
2024/01/27 07:43:30;;;;;;;0.00;0.00;;;;;;;7.30;53.35;100992.34;4348444;32;30495;-85
2024/01/27 07:45:58;;;;;;;0.00;0.00;;;;;;;7.57;52.58;100987.66;4376612;32;33146;-85
2024/01/27 07:48:26;;;;;;;0.00;0.00;;;;;;;7.72;52.04;100976.97;4348939;32;33366;-85
2024/01/27 07:50:56;;;;;;;1.85;1.00;;;;;;;7.42;52.67;100992.22;4368662;32;34038;-85
2024/01/27 07:53:23;;;;;;;0.00;0.00;;;;;;;7.56;52.67;100996.47;4384225;32;32402;-85
2024/01/27 07:55:53;;;;;;;0.00;0.00;;;;;;;7.54;52.50;100988.56;4363754;32;34575;-85
2024/01/27 07:58:21;;;;;;;0.13;0.13;;;;;;;7.55;52.72;100995.59;4359950;32;33904;-85
2024/01/27 08:00:49;;;;;;;0.00;0.00;;;;;;;7.71;52.14;101004.13;4370908;32;34122;-85
2024/01/27 08:03:17;;;;;;;0.00;0.00;;;;;;;7.55;52.40;101002.56;4358167;32;34181;-85
2024/01/27 08:05:45;;;;;;;0.00;0.00;;;;;;;7.74;52.03;101014.62;4354516;32;32720;-85
2024/01/27 08:08:13;;;;;;;0.00;0.00;;;;;;;7.68;52.35;101027.84;4360253;32;33828;-84
2024/01/27 08:10:41;;;;;;;1.17;0.43;;;;;;;7.54;52.80;101027.13;4360840;32;33887;-85
2024/01/27 08:13:09;;;;;;;0.00;0.00;;;;;;;7.77;52.51;101035.59;4372046;32;32678;-84
2024/01/27 08:15:37;;;;;;;0.00;0.00;;;;;;;7.69;52.15;101040.06;4359459;32;32240;-85
2024/01/27 08:18:04;;;;;;;0.45;0.45;;;;;;;7.64;52.74;101047.16;4352716;32;33036;-85
2024/01/27 08:20:32;;;;;;;0.00;0.00;;;;;;;7.65;52.74;101048.91;4363524;32;32483;-85
2024/01/27 08:23:00;;;;;;;0.00;0.00;;;;;;;7.43;53.34;101043.87;4373959;32;32933;-85
2024/01/27 08:25:32;;;;;;;0.00;0.00;;;;;;;7.80;52.80;101046.09;4363958;32;32739;-85
2024/01/27 08:27:59;;;;;;;0.00;0.00;;;;;;;8.17;50.80;101029.84;4373890;32;34487;-85
2024/01/27 08:30:27;;;;;;;0.00;0.00;;;;;;;8.08;51.51;101041.34;4360375;32;32908;-85
2024/01/27 08:32:55;;;;;;;0.00;0.00;;;;;;;7.48;53.63;101045.59;4362935;32;32173;-86
2024/01/27 08:35:29;;;;;;;0.00;0.00;;;;;;;8.03;51.56;101037.03;4351565;32;33806;-86
2024/01/27 08:37:57;;;;;;;0.25;0.25;;;;;;;8.01;51.62;101038.81;4362091;32;33624;-85
2024/01/27 08:40:25;;;;;;;0.00;0.00;;;;;;;8.46;50.38;101027.66;4358516;32;33961;-85
2024/01/27 08:42:53;;;;;;;0.00;0.00;;;;;;;8.24;49.96;101041.13;4374125;32;32409;-87
2024/01/27 08:45:21;;;;;;;0.00;0.00;;;;;;;7.80;51.81;101051.34;4360737;32;34211;-88
2024/01/27 08:47:49;;;;;;;0.00;0.00;;;;;;;8.08;50.98;101061.53;4361446;32;32755;-87
2024/01/27 08:50:16;;;;;;;0.00;0.00;;;;;;;7.95;51.06;101060.81;4340669;32;34094;-87
2024/01/27 08:52:45;;;;;;;0.00;0.00;;;;;;;7.81;52.08;101063.59;4370720;32;31875;-87
2024/01/27 08:55:14;;;;;;;0.00;0.00;;;;;;;7.98;50.55;101060.78;4357555;32;32438;-87
2024/01/27 08:57:42;;;;;;;0.00;0.00;;;;;;;8.38;49.96;101065.53;4352588;32;32484;-88
2024/01/27 09:00:12;;;;;;;0.00;0.00;;;;;;;8.63;48.89;101074.78;4348511;32;32716;-88
2024/01/27 09:02:40;;;;;;;0.25;0.25;;;;;;;8.29;50.53;101082.28;4341003;32;32292;-87
2024/01/27 09:05:08;;;;;;;0.00;0.00;;;;;;;8.21;49.70;101085.03;4342522;32;34684;-87
2024/01/27 09:07:36;;;;;;;0.00;0.00;;;;;;;8.05;49.96;101079.97;4376531;32;34362;-87
2024/01/27 09:10:04;;;;;;;0.98;0.55;;;;;;;8.35;48.36;101076.91;4361814;32;34127;-87
2024/01/27 09:12:32;;;;;;;0.00;0.00;;;;;;;8.30;48.78;101077.87;4370563;32;31890;-87
2024/01/27 09:15:00;;;;;;;0.15;0.15;;;;;;;8.45;48.02;101077.69;4362891;32;32558;-87
2024/01/27 09:17:28;;;;;;;0.00;0.00;;;;;;;8.19;48.17;101085.91;4351505;32;33528;-88
2024/01/27 09:19:56;;;;;;;0.00;0.00;;;;;;;7.88;49.94;101075.81;4348355;32;32733;-87
2024/01/27 09:22:23;;;;;;;0.00;0.00;;;;;;;8.04;49.13;101088.75;4358730;32;32475;-86
2024/01/27 09:24:52;;;;;;;0.00;0.00;;;;;;;8.36;47.83;101081.34;4363581;32;33059;-88
2024/01/27 09:27:19;;;;;;;0.40;0.40;;;;;;;8.34;48.59;101082.19;4361555;32;34702;-88
2024/01/27 09:29:47;;;;;;;1.35;1.02;;;;;;;8.59;48.00;101077.47;4355084;32;32699;-88
2024/01/27 09:32:15;;;;;;;1.37;1.27;;;;;;;8.79;46.80;101075.44;4339736;32;33126;-89
2024/01/27 09:34:43;;;;;;;0.03;0.03;;;;;;;8.69;48.31;101071.22;4350604;32;32624;-88
2024/01/27 09:37:11;;;;;;;0.00;0.00;;;;;;;8.35;47.89;101069.00;4354399;32;32553;-88
2024/01/27 09:39:38;;;;;;;0.00;0.00;;;;;;;8.87;46.02;101065.62;4349345;32;32592;-88
2024/01/27 09:42:07;;;;;;;0.00;0.00;;;;;;;8.69;47.64;101076.47;4358858;32;34146;-88
2024/01/27 09:44:35;;;;;;;0.00;0.00;;;;;;;9.17;46.22;101079.19;4349252;32;32848;-88
2024/01/27 09:47:03;;;;;;;0.00;0.00;;;;;;;9.10;46.10;101074.91;4357619;32;34040;-89
2024/01/27 09:49:31;;;;;;;0.00;0.00;;;;;;;8.56;46.93;101088.06;4341123;32;34301;-88
2024/01/27 09:51:59;;;;;;;0.00;0.00;;;;;;;9.00;45.82;101091.75;4349884;32;35169;-88
2024/01/27 09:54:27;;;;;;;0.00;0.00;;;;;;;8.98;45.31;101104.97;4353679;32;33230;-88
2024/01/27 09:56:55;;;;;;;0.00;0.00;;;;;;;8.46;46.58;101101.37;4349945;32;33157;-90
2024/01/27 09:59:25;;;;;;;0.00;0.00;;;;;;;8.45;47.13;101110.16;4346932;32;32974;-90
2024/01/27 10:01:52;;;;;;;0.00;0.00;;;;;;;9.08;45.50;101105.69;4352951;32;32025;-90
2024/01/27 10:04:22;;;;;;;0.32;0.30;;;;;;;9.29;44.52;101109.72;4362708;32;33385;-90
2024/01/27 10:06:50;;;;;;;0.08;0.08;;;;;;;9.39;43.24;101104.25;4354345;32;33157;-90
2024/01/27 10:09:18;;;;;;;0.00;0.00;;;;;;;9.47;43.13;101104.13;4362111;32;33332;-91
2024/01/27 10:11:49;;;;;;;0.00;0.00;;;;;;;9.55;42.88;101096.06;4339118;32;31896;-90
2024/01/27 10:14:16;;;;;;;0.00;0.00;;;;;;;9.11;42.68;101100.34;4359675;32;32285;-90
2024/01/27 10:16:45;;;;;;;0.00;0.00;;;;;;;9.20;42.63;101094.94;4357179;32;93112;-90
2024/01/27 10:19:18;;;;;;;0.30;0.30;;;;;;;9.00;44.16;101086.50;4352260;32;34011;-90
2024/01/27 10:21:47;;;;;;;0.20;0.20;;;;;;;8.72;44.71;101081.66;4365421;32;33353;-89
2024/01/27 10:24:16;;;;;;;0.00;0.00;;;;;;;9.30;42.99;101091.22;4354091;32;32222;-90
2024/01/27 10:26:43;;;;;;;0.57;0.22;;;;;;;9.21;42.60;101088.78;4363442;32;34495;-90
2024/01/27 10:29:12;;;;;;;0.13;0.13;;;;;;;9.36;42.49;101085.00;4370690;32;33314;-90
2024/01/27 10:31:40;;;;;;;0.00;0.00;;;;;;;9.40;42.78;101078.75;4355447;32;32727;-90
2024/01/27 10:34:14;;;;;;;0.00;0.00;;;;;;;9.36;42.63;101087.63;4358749;32;32461;-89
2024/01/27 10:36:44;;;;;;;0.00;0.00;;;;;;;9.60;43.24;101097.72;4363040;32;33184;-90
2024/01/27 10:39:23;;;;;;;0.10;0.10;;;;;;;9.65;42.79;101087.94;4365788;32;32842;-89
2024/01/27 10:41:52;;;;;;;1.45;0.75;;;;;;;9.72;42.13;101099.25;4362989;32;33641;-90
2024/01/27 10:44:20;;;;;;;0.00;0.00;;;;;;;9.52;41.78;101097.00;4350432;32;34091;-89
2024/01/27 10:46:49;;;;;;;0.00;0.00;;;;;;;9.39;43.20;101101.59;4358397;32;33032;-91
2024/01/27 10:49:18;;;;;;;0.00;0.00;;;;;;;9.79;42.23;101102.66;4352084;32;32513;-90
2024/01/27 10:51:55;;;;;;;0.00;0.00;;;;;;;10.00;41.00;101095.16;4357770;32;31934;-89
2024/01/27 10:54:26;;;;;;;0.00;0.00;;;;;;;9.95;41.43;101097.00;4360844;32;34225;-90
2024/01/27 10:56:56;;;;;;;0.00;0.00;;;;;;;9.73;40.40;101101.87;4355603;32;33916;-90
2024/01/27 10:59:30;;;;;;;0.00;0.00;;;;;;;9.75;40.64;101099.19;4345282;32;33341;-90
2024/01/27 11:01:58;;;;;;;5.65;1.15;;;;;;;9.72;40.41;101099.25;4386383;32;36112;-90
2024/01/27 11:04:26;;;;;;;0.00;0.00;;;;;;;9.44;42.16;101099.75;4360938;32;33162;-90
2024/01/27 11:06:56;;;;;;;0.05;0.05;;;;;;;9.50;42.45;101111.97;4355751;32;32913;-90
2024/01/27 11:09:24;;;;;;;0.00;0.00;;;;;;;9.48;41.04;101100.56;4351317;32;32054;-91
2024/01/27 11:11:52;;;;;;;0.20;0.20;;;;;;;9.09;42.09;101096.88;4361898;32;32523;-90
2024/01/27 11:14:21;;;;;;;0.00;0.00;;;;;;;9.26;41.21;101113.28;4370501;32;35017;-90
2024/01/27 11:16:54;;;;;;;0.00;0.00;;;;;;;9.29;41.00;101100.03;4364687;32;33083;-90
2024/01/27 11:19:23;;;;;;;0.00;0.00;;;;;;;8.90;42.62;101086.66;4352350;32;32972;-90
2024/01/27 11:22:04;;;;;;;3.20;0.30;;;;;;;9.15;43.55;101102.03;4357304;32;34045;-89
2024/01/27 11:24:32;;;;;;;1.87;0.30;;;;;;;9.15;42.19;101092.38;4361706;32;32594;-90
2024/01/27 11:27:04;;;;;;;0.00;0.00;;;;;;;9.24;41.96;101086.94;4351763;32;33272;-90
2024/01/27 11:29:33;;;;;;;;;;;;;;;9.20;41.20;101084.37;4365134;32;32380;-91
2024/01/27 11:32:02;;;;;;;0.00;0.00;;;;;;;9.05;42.33;101085.53;4349970;32;32152;-89
2024/01/27 11:34:44;;;;;;;0.00;0.00;;;;;;;9.34;41.44;101087.66;4364399;32;32779;-89
2024/01/27 11:37:17;;;;;;;1.05;0.95;;;;;;;8.84;41.97;101067.44;4348349;32;33275;-90
2024/01/27 11:39:45;;;;;;;7.75;1.67;;;;;;;9.17;41.87;101066.00;4354399;32;32526;-90